createdAt,value
2023-01-30T00:00:12.600Z,1006.87
2023-01-30T00:01:12.601Z,1006.86
2023-01-30T00:02:12.536Z,1006.78
2023-01-30T00:03:12.520Z,1006.86
2023-01-30T00:04:12.512Z,1006.91
2023-01-30T00:05:12.541Z,1006.98
2023-01-30T00:06:12.511Z,1006.97
2023-01-30T00:07:12.504Z,1007.06
2023-01-30T00:08:12.661Z,1007
2023-01-30T00:09:12.505Z,1006.95
2023-01-30T00:10:12.504Z,1006.82
2023-01-30T00:11:12.510Z,1006.84
2023-01-30T00:12:12.757Z,1006.8
2023-01-30T00:13:12.514Z,1006.63
2023-01-30T00:14:12.509Z,1006.6
2023-01-30T00:15:12.591Z,1006.65
2023-01-30T00:16:12.546Z,1006.63
2023-01-30T00:17:12.517Z,1006.69
2023-01-30T00:18:12.532Z,1006.64
2023-01-30T00:19:12.754Z,1006.69
2023-01-30T00:20:14.164Z,1006.76
2023-01-30T00:21:12.507Z,1006.84
2023-01-30T00:22:12.506Z,1006.84
2023-01-30T00:23:12.503Z,1006.76
2023-01-30T00:24:12.656Z,1006.78
2023-01-30T00:25:12.630Z,1006.81
2023-01-30T00:26:12.590Z,1006.82
2023-01-30T00:27:12.507Z,1006.71
2023-01-30T00:28:12.515Z,1006.7
2023-01-30T00:29:12.517Z,1006.7
2023-01-30T00:30:12.513Z,1006.75
2023-01-30T00:31:12.520Z,1006.7
2023-01-30T00:32:12.516Z,1006.67
2023-01-30T00:33:12.519Z,1006.54
2023-01-30T00:34:12.521Z,1006.5
2023-01-30T00:35:12.510Z,1006.67
2023-01-30T00:36:12.510Z,1006.68
2023-01-30T00:37:12.511Z,1006.66
2023-01-30T00:38:12.519Z,1006.62
2023-01-30T00:39:12.515Z,1006.63
2023-01-30T00:40:12.513Z,1006.67
2023-01-30T00:41:12.506Z,1006.68
2023-01-30T00:42:12.507Z,1006.61
2023-01-30T00:43:15.630Z,1006.62
2023-01-30T00:44:12.513Z,1006.41
2023-01-30T00:45:12.591Z,1006.55
2023-01-30T00:46:12.536Z,1006.44
2023-01-30T00:47:12.622Z,1006.38
2023-01-30T00:48:12.509Z,1006.4
2023-01-30T00:49:12.515Z,1006.32
2023-01-30T00:50:12.507Z,1006.32
2023-01-30T00:51:12.513Z,1006.24
2023-01-30T00:52:12.516Z,1006.22
2023-01-30T00:53:12.518Z,1006.15
2023-01-30T00:54:12.513Z,1006.17
2023-01-30T00:55:12.514Z,1006.13
2023-01-30T00:56:12.513Z,1006.11
2023-01-30T00:57:12.620Z,1006.07
2023-01-30T00:58:12.519Z,1006.06
2023-01-30T00:59:12.512Z,1006
2023-01-30T01:00:12.517Z,1006.04
2023-01-30T01:01:12.705Z,1005.98
2023-01-30T01:02:12.532Z,1006.01
2023-01-30T01:03:12.550Z,1006
2023-01-30T01:04:12.522Z,1006.02
2023-01-30T01:05:12.536Z,1005.97
2023-01-30T01:06:12.522Z,1005.98
2023-01-30T01:07:12.517Z,1005.96
2023-01-30T01:08:12.515Z,1006.05
2023-01-30T01:09:12.521Z,1005.97
2023-01-30T01:10:12.554Z,1005.96
2023-01-30T01:11:12.518Z,1005.93
2023-01-30T01:12:12.508Z,1005.96
2023-01-30T01:13:12.515Z,1005.91
2023-01-30T01:14:12.722Z,1005.86
2023-01-30T01:15:12.526Z,1005.79
2023-01-30T01:16:12.542Z,1005.86
2023-01-30T01:17:12.516Z,1005.78
2023-01-30T01:18:12.522Z,1005.87
2023-01-30T01:19:12.516Z,1005.82
2023-01-30T01:20:12.504Z,1005.86
2023-01-30T01:21:12.503Z,1005.83
2023-01-30T01:22:12.705Z,1005.8
2023-01-30T01:23:12.571Z,1005.74
2023-01-30T01:24:12.795Z,1005.76
2023-01-30T01:25:12.674Z,1005.71
2023-01-30T01:26:12.814Z,1005.63
2023-01-30T01:27:12.552Z,1005.65
2023-01-30T01:28:12.525Z,1005.76
2023-01-30T01:29:12.708Z,1005.68
2023-01-30T01:30:12.516Z,1005.67
2023-01-30T01:31:12.741Z,1005.61
2023-01-30T01:32:12.662Z,1005.64
2023-01-30T01:33:12.517Z,1005.64
2023-01-30T01:34:12.525Z,1005.5
2023-01-30T01:35:12.751Z,1005.5
2023-01-30T01:36:20.208Z,1005.37
2023-01-30T01:37:12.531Z,1005.21
2023-01-30T01:38:12.515Z,1005.25
2023-01-30T01:39:12.514Z,1005.37
2023-01-30T01:40:12.511Z,1005.31
2023-01-30T01:41:12.513Z,1005.21
2023-01-30T01:42:13.518Z,1005.17
2023-01-30T01:43:12.512Z,1005.15
2023-01-30T01:44:12.508Z,1005.08
2023-01-30T01:45:12.550Z,1005.07
2023-01-30T01:46:12.604Z,1005
2023-01-30T01:47:12.514Z,1005.07
2023-01-30T01:48:12.510Z,1005.08
2023-01-30T01:49:12.516Z,1005.01
2023-01-30T01:50:12.530Z,1005.03
2023-01-30T01:51:12.626Z,1004.98
2023-01-30T01:52:12.520Z,1005
2023-01-30T01:53:12.522Z,1005
2023-01-30T01:54:12.521Z,1004.97
2023-01-30T01:55:12.534Z,1005
2023-01-30T01:56:12.539Z,1004.98
2023-01-30T01:57:12.544Z,1005.05
2023-01-30T01:58:12.519Z,1005
2023-01-30T01:59:12.535Z,1004.96
2023-01-30T02:00:12.528Z,1005.01
2023-01-30T02:01:12.601Z,1004.99
2023-01-30T02:02:12.540Z,1005.07
2023-01-30T02:03:12.517Z,1004.96
2023-01-30T02:04:12.519Z,1005.01
2023-01-30T02:05:12.506Z,1005.06
2023-01-30T02:06:12.508Z,1005.01
2023-01-30T02:07:12.580Z,1005
2023-01-30T02:08:12.627Z,1004.97
2023-01-30T02:09:12.507Z,1005
2023-01-30T02:10:12.541Z,1004.98
2023-01-30T02:11:12.516Z,1004.99
2023-01-30T02:12:12.505Z,1005.01
2023-01-30T02:13:12.539Z,1004.99
2023-01-30T02:14:12.518Z,1004.97
2023-01-30T02:15:12.516Z,1004.89
2023-01-30T02:16:12.511Z,1004.86
2023-01-30T02:17:12.569Z,1004.79
2023-01-30T02:18:12.523Z,1004.83
2023-01-30T02:19:12.508Z,1004.61
2023-01-30T02:20:12.515Z,1004.65
2023-01-30T02:21:12.595Z,1004.58
2023-01-30T02:22:12.520Z,1004.59
2023-01-30T02:23:12.511Z,1004.54
2023-01-30T02:24:12.543Z,1004.6
2023-01-30T02:25:12.530Z,1004.48
2023-01-30T02:26:12.525Z,1004.45
2023-01-30T02:27:12.509Z,1004.53
2023-01-30T02:28:12.519Z,1004.46
2023-01-30T02:29:12.523Z,1004.47
2023-01-30T02:30:12.511Z,1004.55
2023-01-30T02:31:12.648Z,1004.51
2023-01-30T02:32:12.509Z,1004.47
2023-01-30T02:33:12.510Z,1004.28
2023-01-30T02:34:12.512Z,1004.35
2023-01-30T02:35:12.508Z,1004.39
2023-01-30T02:36:12.511Z,1004.38
2023-01-30T02:37:12.523Z,1004.37
2023-01-30T02:38:13.189Z,1004.38
2023-01-30T02:39:12.896Z,1004.27
2023-01-30T02:40:12.147Z,1004.13
2023-01-30T02:41:12.427Z,1004.23
2023-01-30T02:42:12.775Z,1004.15
2023-01-30T02:43:12.982Z,1004.08
2023-01-30T02:44:12.272Z,1004.08
2023-01-30T02:45:12.543Z,1004.04
2023-01-30T02:46:12.828Z,1004.15
2023-01-30T02:47:12.393Z,1004.31
2023-01-30T02:48:12.457Z,1004.22
2023-01-30T02:49:12.756Z,1004.29
2023-01-30T02:50:12.979Z,1004.23
2023-01-30T02:51:12.514Z,1004.32
2023-01-30T02:52:12.551Z,1004.3
2023-01-30T02:53:12.533Z,1004.28
2023-01-30T02:54:12.539Z,1004.3
2023-01-30T02:55:12.513Z,1004.26
2023-01-30T02:56:12.652Z,1004.23
2023-01-30T02:57:13.017Z,1004.36
2023-01-30T02:58:12.675Z,1004.38
2023-01-30T02:59:12.605Z,1004.34
2023-01-30T03:00:12.743Z,1004.3
2023-01-30T03:01:12.587Z,1004.32
2023-01-30T03:02:12.762Z,1004.34
2023-01-30T03:03:12.581Z,1004.22
2023-01-30T03:04:12.849Z,1004.23
2023-01-30T03:05:12.627Z,1004.14
2023-01-30T03:06:12.854Z,1004.13
2023-01-30T03:07:12.515Z,1004.06
2023-01-30T03:08:12.824Z,1004.01
2023-01-30T03:09:13.008Z,1004.11
2023-01-30T03:10:12.791Z,1003.93
2023-01-30T03:11:12.678Z,1003.99
2023-01-30T03:12:12.679Z,1003.93
2023-01-30T03:13:12.857Z,1003.84
2023-01-30T03:14:12.522Z,1003.93
2023-01-30T03:15:12.804Z,1003.85
2023-01-30T03:16:12.716Z,1003.82
2023-01-30T03:17:12.951Z,1003.91
2023-01-30T03:18:12.505Z,1003.84
2023-01-30T03:19:12.747Z,1003.75
2023-01-30T03:20:12.581Z,1003.77
2023-01-30T03:21:12.779Z,1003.75
2023-01-30T03:22:12.536Z,1003.73
2023-01-30T03:23:12.517Z,1003.65
2023-01-30T03:24:12.622Z,1003.68
2023-01-30T03:25:12.548Z,1003.7
2023-01-30T03:26:12.519Z,1003.63
2023-01-30T03:27:12.517Z,1003.67
2023-01-30T03:28:12.523Z,1003.57
2023-01-30T03:29:12.500Z,1003.55
2023-01-30T03:30:12.537Z,1003.56
2023-01-30T03:31:12.551Z,1003.54
2023-01-30T03:32:12.526Z,1003.48
2023-01-30T03:33:12.510Z,1003.5
2023-01-30T03:34:12.517Z,1003.42
2023-01-30T03:35:12.530Z,1003.5
2023-01-30T03:36:12.505Z,1003.52
2023-01-30T03:37:12.509Z,1003.58
2023-01-30T03:38:12.523Z,1003.58
2023-01-30T03:39:12.639Z,1003.61
2023-01-30T03:40:12.571Z,1003.64
2023-01-30T03:41:12.557Z,1003.62
2023-01-30T03:42:12.517Z,1003.58
2023-01-30T03:43:12.717Z,1003.54
2023-01-30T03:44:12.514Z,1003.56
2023-01-30T03:45:12.544Z,1003.64
2023-01-30T03:46:12.599Z,1003.62
2023-01-30T03:47:12.507Z,1003.52
2023-01-30T03:48:12.515Z,1003.51
2023-01-30T03:49:12.514Z,1003.45
2023-01-30T03:50:12.655Z,1003.48
2023-01-30T03:51:12.526Z,1003.47
2023-01-30T03:52:12.514Z,1003.45
2023-01-30T03:53:12.510Z,1003.36
2023-01-30T03:54:12.508Z,1003.37
2023-01-30T03:55:12.506Z,1003.3
2023-01-30T03:56:12.546Z,1003.3
2023-01-30T03:57:12.519Z,1003.29
2023-01-30T03:58:12.509Z,1003.3
2023-01-30T03:59:12.509Z,1003.18
2023-01-30T04:00:12.503Z,1003.21
2023-01-30T04:01:12.591Z,1003.14
2023-01-30T04:02:12.574Z,1003.22
2023-01-30T04:03:12.523Z,1003.19
2023-01-30T04:04:12.519Z,1003.2
2023-01-30T04:05:12.535Z,1003.08
2023-01-30T04:06:12.511Z,1003.06
2023-01-30T04:07:12.517Z,1003.01
2023-01-30T04:08:12.520Z,1003.01
2023-01-30T04:09:12.515Z,1003
2023-01-30T04:10:12.604Z,1002.96
2023-01-30T04:11:12.507Z,1002.96
2023-01-30T04:12:12.505Z,1003.02
2023-01-30T04:13:12.506Z,1002.97
2023-01-30T04:14:12.504Z,1002.94
2023-01-30T04:15:12.510Z,1002.96
2023-01-30T04:16:12.536Z,1002.94
2023-01-30T04:17:12.512Z,1003
2023-01-30T04:18:12.513Z,1002.92
2023-01-30T04:19:12.512Z,1002.99
2023-01-30T04:20:12.874Z,1002.93
2023-01-30T04:21:12.531Z,1002.89
2023-01-30T04:22:12.552Z,1003
2023-01-30T04:23:12.600Z,1002.92
2023-01-30T04:24:12.523Z,1002.99
2023-01-30T04:25:12.521Z,1003.02
2023-01-30T04:26:12.560Z,1002.97
2023-01-30T04:27:12.501Z,1002.98
2023-01-30T04:28:12.517Z,1002.99
2023-01-30T04:29:12.515Z,1003.14
2023-01-30T04:30:12.518Z,1003.08
2023-01-30T04:31:12.531Z,1003.01
2023-01-30T04:32:12.512Z,1003.01
2023-01-30T04:33:12.593Z,1003.01
2023-01-30T04:34:12.517Z,1002.97
2023-01-30T04:35:12.502Z,1003
2023-01-30T04:36:12.626Z,1003.04
2023-01-30T04:37:12.529Z,1002.91
2023-01-30T04:38:12.503Z,1003.01
2023-01-30T04:39:12.547Z,1002.9
2023-01-30T04:40:12.560Z,1002.85
2023-01-30T04:41:12.517Z,1002.78
2023-01-30T04:42:12.525Z,1002.9
2023-01-30T04:43:12.516Z,1002.84
2023-01-30T04:44:12.519Z,1002.87
2023-01-30T04:45:12.522Z,1002.84
2023-01-30T04:46:12.516Z,1002.43
2023-01-30T04:47:12.561Z,1002.94
2023-01-30T04:48:12.516Z,1002.85
2023-01-30T04:49:12.524Z,1002.9
2023-01-30T04:50:12.534Z,1002.93
2023-01-30T04:51:12.615Z,1002.99
2023-01-30T04:52:12.538Z,1003
2023-01-30T04:53:12.513Z,1002.96
2023-01-30T04:54:12.627Z,1002.93
2023-01-30T04:55:12.897Z,1002.88
2023-01-30T04:56:12.745Z,1002.91
2023-01-30T04:57:12.575Z,1002.97
2023-01-30T04:58:12.770Z,1002.91
2023-01-30T04:59:12.807Z,1002.98
2023-01-30T05:00:14.387Z,1002.86
2023-01-30T05:01:13.821Z,1002.78
2023-01-30T05:02:14.004Z,1002.73
2023-01-30T05:03:14.158Z,1002.7
2023-01-30T05:04:13.961Z,1002.77
2023-01-30T05:05:14.455Z,1002.76
2023-01-30T05:06:12.830Z,1002.78
2023-01-30T05:07:13.155Z,1002.73
2023-01-30T05:08:12.640Z,1002.68
2023-01-30T05:09:12.518Z,1002.64
2023-01-30T05:10:12.506Z,1002.7
2023-01-30T05:11:12.537Z,1002.72
2023-01-30T05:12:12.504Z,1002.77
2023-01-30T05:13:12.511Z,1002.71
2023-01-30T05:14:12.547Z,1002.74
2023-01-30T05:15:12.526Z,1002.77
2023-01-30T05:16:12.522Z,1002.79
2023-01-30T05:17:12.579Z,1002.77
2023-01-30T05:18:12.605Z,1002.69
2023-01-30T05:19:12.508Z,1002.78
2023-01-30T05:20:12.523Z,1002.76
2023-01-30T05:21:12.512Z,1002.74
2023-01-30T05:22:12.516Z,1002.73
2023-01-30T05:23:12.529Z,1002.75
2023-01-30T05:24:12.575Z,1002.64
2023-01-30T05:25:12.519Z,1002.62
2023-01-30T05:26:12.587Z,1002.6
2023-01-30T05:27:12.513Z,1002.65
2023-01-30T05:28:12.531Z,1002.68
2023-01-30T05:29:12.584Z,1002.7
2023-01-30T05:30:12.611Z,1002.59
2023-01-30T05:31:13.327Z,1002.59
2023-01-30T05:32:12.526Z,1002.54
2023-01-30T05:33:12.516Z,1002.5
2023-01-30T05:34:12.635Z,1002.55
2023-01-30T05:35:12.683Z,1002.49
2023-01-30T05:36:12.505Z,1002.5
2023-01-30T05:37:12.518Z,1002.53
2023-01-30T05:38:12.508Z,1002.45
2023-01-30T05:39:12.509Z,1002.42
2023-01-30T05:40:12.565Z,1002.43
2023-01-30T05:41:12.509Z,1002.43
2023-01-30T05:42:12.509Z,1002.49
2023-01-30T05:43:12.690Z,1002.43
2023-01-30T05:44:15.515Z,1002.35
2023-01-30T05:45:12.512Z,1002.37
2023-01-30T05:46:12.607Z,1002.42
2023-01-30T05:47:12.771Z,1002.46
2023-01-30T05:48:12.507Z,1002.43
2023-01-30T05:49:12.510Z,1002.06
2023-01-30T05:50:12.524Z,1002.46
2023-01-30T05:51:12.514Z,1002.42
2023-01-30T05:52:21.527Z,1002.4
2023-01-30T05:53:12.526Z,1002.34
2023-01-30T05:54:12.507Z,1002.42
2023-01-30T05:55:12.626Z,1002.45
2023-01-30T05:56:12.657Z,1002.52
2023-01-30T05:57:13.106Z,1002.52
2023-01-30T05:58:13.055Z,1002.5
2023-01-30T05:59:12.238Z,1002.59
2023-01-30T06:00:12.506Z,1002.6
2023-01-30T06:01:12.858Z,1002.58
2023-01-30T06:02:14.143Z,1002.44
2023-01-30T06:03:12.333Z,1002.48
2023-01-30T06:04:12.641Z,1002.49
2023-01-30T06:05:13.083Z,1002.52
2023-01-30T06:06:12.285Z,1002.6
2023-01-30T06:07:12.560Z,1002.6
2023-01-30T06:08:12.799Z,1002.54
2023-01-30T06:09:12.531Z,1002.63
2023-01-30T06:10:12.747Z,1002.6
2023-01-30T06:11:12.516Z,1002.63
2023-01-30T06:12:12.504Z,1002.59
2023-01-30T06:13:12.511Z,1002.53
2023-01-30T06:14:12.675Z,1002.54
2023-01-30T06:15:12.519Z,1002.48
2023-01-30T06:16:12.590Z,1002.43
2023-01-30T06:17:12.521Z,1002.44
2023-01-30T06:18:12.515Z,1002.46
2023-01-30T06:19:12.544Z,1002.4
2023-01-30T06:20:12.514Z,1002.33
2023-01-30T06:21:12.513Z,1002.38
2023-01-30T06:22:12.526Z,1002.39
2023-01-30T06:23:12.514Z,1002.36
2023-01-30T06:24:12.567Z,1002.49
2023-01-30T06:25:12.532Z,1002.54
2023-01-30T06:26:12.546Z,1002.53
2023-01-30T06:27:12.689Z,1002.54
2023-01-30T06:28:12.513Z,1002.63
2023-01-30T06:29:12.555Z,1002.59
2023-01-30T06:30:12.525Z,1002.53
2023-01-30T06:31:12.576Z,1002.54
2023-01-30T06:32:12.519Z,1002.47
2023-01-30T06:33:12.510Z,1002.5
2023-01-30T06:34:12.563Z,1002.55
2023-01-30T06:35:12.540Z,1002.58
2023-01-30T06:36:12.522Z,1002.58
2023-01-30T06:37:12.770Z,1002.71
2023-01-30T06:38:12.505Z,1002.65
2023-01-30T06:39:12.510Z,1002.56
2023-01-30T06:40:12.844Z,1002.71
2023-01-30T06:41:12.518Z,1002.68
2023-01-30T06:42:12.622Z,1002.68
2023-01-30T06:43:12.526Z,1002.72
2023-01-30T06:44:12.771Z,1002.74
2023-01-30T06:45:12.524Z,1002.72
2023-01-30T06:46:12.974Z,1002.79
2023-01-30T06:47:12.602Z,1002.72
2023-01-30T06:48:12.808Z,1002.75
2023-01-30T06:49:12.537Z,1002.78
2023-01-30T06:50:13.331Z,1002.75
2023-01-30T06:51:12.706Z,1002.79
2023-01-30T06:52:12.616Z,1002.85
2023-01-30T06:53:12.643Z,1002.94
2023-01-30T06:54:12.523Z,1002.8
2023-01-30T06:55:12.510Z,1002.81
2023-01-30T06:56:12.513Z,1002.85
2023-01-30T06:57:12.520Z,1002.72
2023-01-30T06:58:12.519Z,1002.8
2023-01-30T06:59:12.511Z,1002.82
2023-01-30T07:00:12.523Z,1002.75
2023-01-30T07:01:12.523Z,1002.74
2023-01-30T07:02:12.553Z,1002.74
2023-01-30T07:03:12.572Z,1002.63
2023-01-30T07:04:12.560Z,1002.63
2023-01-30T07:05:12.521Z,1002.63
2023-01-30T07:06:12.516Z,1002.74
2023-01-30T07:07:12.514Z,1002.66
2023-01-30T07:08:12.538Z,1002.64
2023-01-30T07:09:12.511Z,1002.72
2023-01-30T07:10:12.506Z,1002.64
2023-01-30T07:11:12.512Z,1002.64
2023-01-30T07:12:12.507Z,1002.64
2023-01-30T07:13:12.827Z,1002.72
2023-01-30T07:14:12.514Z,1002.7
2023-01-30T07:15:12.510Z,1002.56
2023-01-30T07:16:12.607Z,1002.57
2023-01-30T07:17:12.517Z,1002.55
2023-01-30T07:18:12.526Z,1002.48
2023-01-30T07:19:12.516Z,1002.49
2023-01-30T07:20:12.719Z,1002.43
2023-01-30T07:21:12.526Z,1002.39
2023-01-30T07:22:12.681Z,1002.39
2023-01-30T07:23:12.586Z,1002.33
2023-01-30T07:24:12.860Z,1002.56
2023-01-30T07:25:12.625Z,1002.61
2023-01-30T07:26:12.698Z,1002.61
2023-01-30T07:27:12.938Z,1002.68
2023-01-30T07:28:12.824Z,1002.76
2023-01-30T07:29:12.716Z,1002.72
2023-01-30T07:30:12.760Z,1002.8
2023-01-30T07:31:12.663Z,1002.82
2023-01-30T07:32:12.928Z,1002.8
2023-01-30T07:33:13.219Z,1002.72
2023-01-30T07:34:12.886Z,1002.85
2023-01-30T07:35:13.158Z,1002.91
2023-01-30T07:36:13.052Z,1002.89
2023-01-30T07:37:12.942Z,1002.87
2023-01-30T07:38:12.867Z,1002.89
2023-01-30T07:39:12.700Z,1002.88
2023-01-30T07:40:12.979Z,1002.94
2023-01-30T07:41:12.776Z,1002.9
2023-01-30T07:42:12.724Z,1002.92
2023-01-30T07:43:12.617Z,1002.89
2023-01-30T07:44:12.799Z,1003
2023-01-30T07:45:12.526Z,1002.98
2023-01-30T07:46:12.513Z,1002.99
2023-01-30T07:47:12.567Z,1002.96
2023-01-30T07:48:12.517Z,1003.06
2023-01-30T07:49:12.572Z,1002.96
2023-01-30T07:50:12.584Z,1002.9
2023-01-30T07:51:12.539Z,1002.99
2023-01-30T07:52:12.523Z,1002.96
2023-01-30T07:53:12.553Z,1002.95
2023-01-30T07:54:12.507Z,1002.92
2023-01-30T07:55:12.518Z,1003.05
2023-01-30T07:56:12.518Z,1003.07
2023-01-30T07:57:12.523Z,1003.16
2023-01-30T07:58:12.527Z,1003.09
2023-01-30T07:59:12.536Z,1003.13
2023-01-30T08:00:12.512Z,1003.18
2023-01-30T08:01:12.541Z,1003.24
2023-01-30T08:02:12.509Z,1003.36
2023-01-30T08:03:12.509Z,1003.25
2023-01-30T08:04:12.583Z,1003.29
2023-01-30T08:05:12.544Z,1003.16
2023-01-30T08:06:12.528Z,1003.14
2023-01-30T08:07:12.514Z,1003.12
2023-01-30T08:08:12.527Z,1003.16
2023-01-30T08:09:12.519Z,1003.14
2023-01-30T08:10:15.622Z,1003.09
2023-01-30T08:11:12.555Z,1003.14
2023-01-30T08:12:12.530Z,1003.18
2023-01-30T08:13:12.523Z,1003.15
2023-01-30T08:14:12.517Z,1003.19
2023-01-30T08:15:12.512Z,1003.19
2023-01-30T08:16:12.571Z,1003.17
2023-01-30T08:17:12.512Z,1003.17
2023-01-30T08:18:12.520Z,1003.28
2023-01-30T08:19:12.539Z,1003.36
2023-01-30T08:20:12.577Z,1003.42
2023-01-30T08:21:12.526Z,1003.26
2023-01-30T08:22:12.524Z,1003.42
2023-01-30T08:23:12.515Z,1003.59
2023-01-30T08:24:12.517Z,1003.51
2023-01-30T08:25:12.512Z,1003.25
2023-01-30T08:26:12.562Z,1003.49
2023-01-30T08:27:12.516Z,1003.57
2023-01-30T08:28:12.517Z,1003.55
2023-01-30T08:29:12.511Z,1003.49
2023-01-30T08:30:12.517Z,1003.66
2023-01-30T08:31:12.616Z,1003.6
2023-01-30T08:32:14.698Z,1003.51
2023-01-30T08:33:12.527Z,1003.54
2023-01-30T08:34:12.618Z,1003.54
2023-01-30T08:35:12.530Z,1003.5
2023-01-30T08:36:12.582Z,1003.47
2023-01-30T08:37:12.510Z,1003.42
2023-01-30T08:38:12.514Z,1003.46
2023-01-30T08:39:12.511Z,1003.47
2023-01-30T08:40:12.517Z,1003.5
2023-01-30T08:41:12.518Z,1003.58
2023-01-30T08:42:12.535Z,1003.53
2023-01-30T08:43:12.524Z,1003.59
2023-01-30T08:44:12.520Z,1003.59
2023-01-30T08:45:12.523Z,1003.63
2023-01-30T08:46:12.626Z,1003.59
2023-01-30T08:47:12.521Z,1003.6
2023-01-30T08:48:12.513Z,1003.63
2023-01-30T08:49:12.515Z,1003.65
2023-01-30T08:50:12.515Z,1003.62
2023-01-30T08:51:12.510Z,1003.62
2023-01-30T08:52:12.521Z,1003.64
2023-01-30T08:53:12.514Z,1003.65
2023-01-30T08:54:12.508Z,1003.64
2023-01-30T08:55:12.511Z,1003.62
2023-01-30T08:56:12.507Z,1003.64
2023-01-30T08:57:12.511Z,1003.65
2023-01-30T08:58:12.519Z,1003.66
2023-01-30T08:59:12.512Z,1003.71
2023-01-30T09:00:12.521Z,1003.7
2023-01-30T09:01:12.555Z,1003.68
2023-01-30T09:02:12.554Z,1003.72
2023-01-30T09:03:12.630Z,1003.63
2023-01-30T09:04:12.528Z,1003.65
2023-01-30T09:05:12.525Z,1003.62
2023-01-30T09:06:12.532Z,1003.57
2023-01-30T09:07:12.522Z,1003.68
2023-01-30T09:08:12.525Z,1003.6
2023-01-30T09:09:12.519Z,1003.61
2023-01-30T09:10:12.503Z,1003.64
2023-01-30T09:11:12.532Z,1003.62
2023-01-30T09:12:12.506Z,1003.61
2023-01-30T09:13:12.523Z,1003.59
2023-01-30T09:14:12.520Z,1003.68
2023-01-30T09:15:12.516Z,1003.62
2023-01-30T09:16:12.617Z,1003.61
2023-01-30T09:17:12.520Z,1003.66
2023-01-30T09:18:12.521Z,1003.68
2023-01-30T09:19:12.509Z,1003.67
2023-01-30T09:20:12.571Z,1003.7
2023-01-30T09:21:12.547Z,1003.65
2023-01-30T09:22:12.527Z,1003.61
2023-01-30T09:23:12.514Z,1003.72
2023-01-30T09:24:12.520Z,1003.7
2023-01-30T09:25:12.604Z,1003.71
2023-01-30T09:26:12.951Z,1003.74
2023-01-30T09:27:13.064Z,1003.7
2023-01-30T09:28:13.643Z,1003.62
2023-01-30T09:29:12.977Z,1003.68
2023-01-30T09:30:12.253Z,1003.55
2023-01-30T09:31:12.691Z,1003.52
2023-01-30T09:32:12.827Z,1003.55
2023-01-30T09:33:12.090Z,1003.6
2023-01-30T09:34:12.363Z,1003.56
2023-01-30T09:35:12.651Z,1003.57
2023-01-30T09:36:12.922Z,1003.59
2023-01-30T09:37:12.292Z,1003.59
2023-01-30T09:38:12.589Z,1003.61
2023-01-30T09:39:12.835Z,1003.67
2023-01-30T09:40:12.516Z,1003.7
2023-01-30T09:41:12.510Z,1003.75
2023-01-30T09:42:12.525Z,1003.69
2023-01-30T09:43:12.526Z,1003.69
2023-01-30T09:44:12.637Z,1003.66
2023-01-30T09:45:12.571Z,1003.69
2023-01-30T09:46:12.524Z,1003.65
2023-01-30T09:47:12.511Z,1003.63
2023-01-30T09:48:12.523Z,1003.74
2023-01-30T09:49:12.525Z,1003.74
2023-01-30T09:50:12.534Z,1003.83
2023-01-30T09:51:12.538Z,1003.9
2023-01-30T09:52:12.516Z,1003.65
2023-01-30T09:53:12.533Z,1003.84
2023-01-30T09:54:12.527Z,1003.79
2023-01-30T09:55:12.547Z,1003.84
2023-01-30T09:56:12.579Z,1003.78
2023-01-30T09:57:21.520Z,1003.84
2023-01-30T09:58:12.513Z,1003.74
2023-01-30T09:59:12.574Z,1003.84
2023-01-30T10:00:12.550Z,1003.84
2023-01-30T10:01:12.527Z,1003.8
2023-01-30T10:02:12.509Z,1003.86
2023-01-30T10:03:12.552Z,1003.82
2023-01-30T10:04:12.545Z,1003.83
2023-01-30T10:05:12.663Z,1003.78
2023-01-30T10:06:12.513Z,1003.91
2023-01-30T10:07:12.510Z,1003.94
2023-01-30T10:08:12.517Z,1004.03
2023-01-30T10:09:12.530Z,1003.98
2023-01-30T10:10:12.598Z,1004.02
2023-01-30T10:11:13.789Z,1003.98
2023-01-30T10:12:12.545Z,1004.09
2023-01-30T10:13:12.511Z,1003.99
2023-01-30T10:14:12.595Z,1003.92
2023-01-30T10:15:12.877Z,1003.89
2023-01-30T10:16:12.662Z,1003.89
2023-01-30T10:17:12.538Z,1003.98
2023-01-30T10:18:12.694Z,1003.98
2023-01-30T10:19:16.019Z,1004.02
2023-01-30T10:20:12.712Z,1003.98
2023-01-30T10:21:12.542Z,1003.99
2023-01-30T10:22:12.806Z,1004
2023-01-30T10:23:12.537Z,1004.06
2023-01-30T10:24:12.822Z,1003.97
2023-01-30T10:25:12.565Z,1004.01
2023-01-30T10:26:12.857Z,1003.93
2023-01-30T10:27:12.659Z,1003.89
2023-01-30T10:28:12.545Z,1003.87
2023-01-30T10:29:12.584Z,1003.91
2023-01-30T10:30:12.507Z,1003.86
2023-01-30T10:31:12.616Z,1003.95
2023-01-30T10:32:12.550Z,1003.98
2023-01-30T10:33:12.518Z,1004
2023-01-30T10:34:12.510Z,1003.99
2023-01-30T10:35:12.520Z,1003.93
2023-01-30T10:36:12.514Z,1004
2023-01-30T10:37:12.553Z,1004.05
2023-01-30T10:38:12.539Z,1004.01
2023-01-30T10:39:12.514Z,1004.01
2023-01-30T10:40:12.591Z,1004.07
2023-01-30T10:41:12.522Z,1004.01
2023-01-30T10:42:13.529Z,1003.97
2023-01-30T10:43:12.517Z,1003.94
2023-01-30T10:44:12.728Z,1003.89
2023-01-30T10:45:12.514Z,1003.84
2023-01-30T10:46:12.564Z,1003.86
2023-01-30T10:47:12.783Z,1003.87
2023-01-30T10:48:12.519Z,1003.89
2023-01-30T10:49:12.519Z,1003.95
2023-01-30T10:50:12.578Z,1003.88
2023-01-30T10:51:12.523Z,1003.96
2023-01-30T10:52:12.541Z,1003.77
2023-01-30T10:53:12.519Z,1003.86
2023-01-30T10:54:12.704Z,1003.84
2023-01-30T10:55:12.548Z,1003.77
2023-01-30T10:56:12.659Z,1003.79
2023-01-30T10:57:12.699Z,1003.77
2023-01-30T10:58:12.886Z,1003.84
2023-01-30T10:59:12.525Z,1003.85
2023-01-30T11:00:12.716Z,1003.79
2023-01-30T11:01:12.520Z,1003.9
2023-01-30T11:02:12.773Z,1003.77
2023-01-30T11:03:12.624Z,1003.85
2023-01-30T11:04:12.833Z,1003.92
2023-01-30T11:05:12.612Z,1004
2023-01-30T11:06:12.902Z,1003.91
2023-01-30T11:07:12.732Z,1003.97
2023-01-30T11:08:12.947Z,1003.93
2023-01-30T11:09:12.739Z,1003.97
2023-01-30T11:10:12.521Z,1004.02
2023-01-30T11:11:13.234Z,1003.98
2023-01-30T11:12:12.573Z,1003.96
2023-01-30T11:13:12.857Z,1004.01
2023-01-30T11:14:12.569Z,1004.03
2023-01-30T11:15:12.783Z,1003.96
2023-01-30T11:16:12.690Z,1004
2023-01-30T11:17:12.511Z,1004.02
2023-01-30T11:19:06.557Z,1003.99
2023-01-30T11:19:22.497Z,1004.01
2023-01-30T11:20:16.375Z,1004.02
2023-01-30T11:21:12.513Z,1004.01
2023-01-30T11:22:12.525Z,1004
2023-01-30T11:23:12.577Z,1004.03
2023-01-30T11:24:12.543Z,1003.97
2023-01-30T11:25:12.515Z,1004.05
2023-01-30T11:26:15.617Z,1004.04
2023-01-30T11:27:12.574Z,1004.11
2023-01-30T11:28:12.521Z,1004.11
2023-01-30T11:29:12.521Z,1004.09
2023-01-30T11:30:12.538Z,1004.13
2023-01-30T11:31:12.670Z,1004.08
2023-01-30T11:32:12.598Z,1004.07
2023-01-30T11:33:12.533Z,1003.98
2023-01-30T11:34:12.531Z,1004.01
2023-01-30T11:35:12.516Z,1003.98
2023-01-30T11:36:12.533Z,1003.96
2023-01-30T11:37:12.635Z,1003.92
2023-01-30T11:38:12.559Z,1003.85
2023-01-30T11:39:12.547Z,1003.88
2023-01-30T11:40:12.529Z,1003.92
2023-01-30T11:41:12.514Z,1004.02
2023-01-30T11:42:12.520Z,1004.01
2023-01-30T11:43:12.532Z,1003.98
2023-01-30T11:44:12.525Z,1003.96
2023-01-30T11:45:19.539Z,1003.91
2023-01-30T11:46:12.549Z,1003.85
2023-01-30T11:47:12.524Z,1003.94
2023-01-30T11:48:33.040Z,1003.97
2023-01-30T11:49:42.885Z,1004.05
2023-01-30T11:50:22.619Z,1004.02
2023-01-30T11:51:12.527Z,1004.11
2023-01-30T11:52:12.529Z,1004.04
2023-01-30T11:53:13.520Z,1004.02
2023-01-30T11:54:12.520Z,1004.05
2023-01-30T11:55:12.521Z,1004.02
2023-01-30T11:56:15.514Z,1004.11
2023-01-30T11:57:12.515Z,1004.08
2023-01-30T11:58:12.511Z,1003.97
2023-01-30T11:59:12.521Z,1004.11
2023-01-30T12:00:12.522Z,1004.03
2023-01-30T12:01:12.518Z,1004.09
2023-01-30T12:02:12.575Z,1004.1
2023-01-30T12:03:12.587Z,1004.05
2023-01-30T12:04:12.541Z,1004.16
2023-01-30T12:05:12.520Z,1004.14
2023-01-30T12:06:12.520Z,1004.15
2023-01-30T12:07:12.519Z,1004.06
2023-01-30T12:08:12.525Z,1004.17
2023-01-30T12:09:12.514Z,1004.12